Terminal Aerodrome Forecast
Issued by NWS

Home | Current Version | Previous Version | Text Only | Print | Product List | Glossary On
Versions: 1 2 3 4 5 6 7 8 9 10 11 12 13 14
496
FTUS41 KCAR 132338
TAFHUL
TAF
KHUL 132338Z 1400/1424 34008KT 3SM -SHSN OVC035
      TEMPO 1400/1402 1 1/2SM -SN BR OVC025
     FM140200 36008G16KT P6SM VCSH OVC035
     FM140800 34012G22KT P6SM BKN040
     FM141500 28012G22KT P6SM SCT040=

USA.gov is the U.S. government's official web portal to all federal, state and local government web resources and services.